sensor_id;sensor_type;location;lat;lon;timestamp;P1;durP1;ratioP1;P2;durP2;ratioP2
7031;SDS011;3557;48.880;8.328;2023-04-24T00:02:10;1.15;;;0.90;;
7031;SDS011;3557;48.880;8.328;2023-04-24T00:04:39;1.40;;;1.00;;
7031;SDS011;3557;48.880;8.328;2023-04-24T00:07:09;1.95;;;1.00;;
7031;SDS011;3557;48.880;8.328;2023-04-24T00:09:38;2.17;;;1.00;;
7031;SDS011;3557;48.880;8.328;2023-04-24T00:12:05;1.13;;;1.00;;
7031;SDS011;3557;48.880;8.328;2023-04-24T00:14:33;3.95;;;1.20;;
7031;SDS011;3557;48.880;8.328;2023-04-24T00:17:00;1.63;;;1.10;;
7031;SDS011;3557;48.880;8.328;2023-04-24T00:19:28;2.92;;;0.95;;
7031;SDS011;3557;48.880;8.328;2023-04-24T00:21:57;1.73;;;1.13;;
7031;SDS011;3557;48.880;8.328;2023-04-24T00:24:25;1.02;;;0.88;;
7031;SDS011;3557;48.880;8.328;2023-04-24T00:26:52;2.20;;;1.00;;
7031;SDS011;3557;48.880;8.328;2023-04-24T00:29:20;3.17;;;1.10;;
7031;SDS011;3557;48.880;8.328;2023-04-24T00:31:47;2.92;;;1.10;;
7031;SDS011;3557;48.880;8.328;2023-04-24T00:34:15;2.80;;;1.13;;
7031;SDS011;3557;48.880;8.328;2023-04-24T00:36:43;2.00;;;1.10;;
7031;SDS011;3557;48.880;8.328;2023-04-24T00:39:12;2.67;;;1.02;;
7031;SDS011;3557;48.880;8.328;2023-04-24T00:41:39;0.82;;;0.80;;
7031;SDS011;3557;48.880;8.328;2023-04-24T00:44:07;2.55;;;1.00;;
7031;SDS011;3557;48.880;8.328;2023-04-24T00:46:34;2.65;;;1.30;;
7031;SDS011;3557;48.880;8.328;2023-04-24T00:49:03;1.40;;;1.10;;
7031;SDS011;3557;48.880;8.328;2023-04-24T00:51:31;1.77;;;1.10;;
7031;SDS011;3557;48.880;8.328;2023-04-24T00:53:59;0.85;;;0.85;;
7031;SDS011;3557;48.880;8.328;2023-04-24T00:56:28;1.15;;;1.08;;
7031;SDS011;3557;48.880;8.328;2023-04-24T00:58:56;2.13;;;0.90;;
7031;SDS011;3557;48.880;8.328;2023-04-24T01:01:23;1.77;;;1.27;;
7031;SDS011;3557;48.880;8.328;2023-04-24T01:03:51;1.25;;;0.98;;
7031;SDS011;3557;48.880;8.328;2023-04-24T01:06:19;2.42;;;1.20;;
7031;SDS011;3557;48.880;8.328;2023-04-24T01:08:47;1.00;;;1.00;;
7031;SDS011;3557;48.880;8.328;2023-04-24T01:11:15;1.70;;;0.93;;
7031;SDS011;3557;48.880;8.328;2023-04-24T01:13:45;1.20;;;0.90;;
7031;SDS011;3557;48.880;8.328;2023-04-24T01:16:13;3.28;;;1.20;;
7031;SDS011;3557;48.880;8.328;2023-04-24T01:18:42;1.50;;;0.95;;
7031;SDS011;3557;48.880;8.328;2023-04-24T01:21:11;0.90;;;0.90;;
7031;SDS011;3557;48.880;8.328;2023-04-24T01:23:42;3.75;;;1.00;;
7031;SDS011;3557;48.880;8.328;2023-04-24T01:26:10;2.15;;;1.08;;
7031;SDS011;3557;48.880;8.328;2023-04-24T01:28:38;0.90;;;0.90;;
7031;SDS011;3557;48.880;8.328;2023-04-24T01:31:05;3.30;;;1.27;;
7031;SDS011;3557;48.880;8.328;2023-04-24T01:33:33;2.22;;;0.98;;
7031;SDS011;3557;48.880;8.328;2023-04-24T01:36:00;0.95;;;0.85;;
7031;SDS011;3557;48.880;8.328;2023-04-24T01:38:28;1.10;;;1.00;;
7031;SDS011;3557;48.880;8.328;2023-04-24T01:40:57;1.00;;;0.90;;
7031;SDS011;3557;48.880;8.328;2023-04-24T01:43:24;3.22;;;1.00;;
7031;SDS011;3557;48.880;8.328;2023-04-24T01:45:52;1.52;;;0.98;;
7031;SDS011;3557;48.880;8.328;2023-04-24T01:48:19;2.00;;;1.00;;
7031;SDS011;3557;48.880;8.328;2023-04-24T01:50:46;2.75;;;1.08;;
7031;SDS011;3557;48.880;8.328;2023-04-24T01:53:14;2.22;;;1.00;;
7031;SDS011;3557;48.880;8.328;2023-04-24T01:55:41;1.52;;;1.10;;
7031;SDS011;3557;48.880;8.328;2023-04-24T01:58:13;1.63;;;1.10;;
7031;SDS011;3557;48.880;8.328;2023-04-24T02:00:40;3.45;;;1.17;;
7031;SDS011;3557;48.880;8.328;2023-04-24T02:03:07;0.95;;;0.90;;
7031;SDS011;3557;48.880;8.328;2023-04-24T02:05:35;1.83;;;1.10;;
7031;SDS011;3557;48.880;8.328;2023-04-24T02:08:02;2.75;;;1.08;;
7031;SDS011;3557;48.880;8.328;2023-04-24T02:10:30;2.17;;;0.80;;
7031;SDS011;3557;48.880;8.328;2023-04-24T02:12:57;2.85;;;1.23;;
7031;SDS011;3557;48.880;8.328;2023-04-24T02:15:27;1.67;;;1.10;;
7031;SDS011;3557;48.880;8.328;2023-04-24T02:17:55;4.00;;;1.10;;
7031;SDS011;3557;48.880;8.328;2023-04-24T02:20:23;1.45;;;1.10;;
7031;SDS011;3557;48.880;8.328;2023-04-24T02:22:52;2.65;;;0.93;;
7031;SDS011;3557;48.880;8.328;2023-04-24T02:25:20;1.85;;;1.48;;
7031;SDS011;3557;48.880;8.328;2023-04-24T02:27:47;2.00;;;1.15;;
7031;SDS011;3557;48.880;8.328;2023-04-24T02:30:15;1.00;;;0.90;;
7031;SDS011;3557;48.880;8.328;2023-04-24T02:32:45;1.77;;;1.10;;
7031;SDS011;3557;48.880;8.328;2023-04-24T02:35:12;1.20;;;1.00;;
7031;SDS011;3557;48.880;8.328;2023-04-24T02:37:40;2.22;;;1.00;;
7031;SDS011;3557;48.880;8.328;2023-04-24T02:40:11;0.80;;;0.80;;
7031;SDS011;3557;48.880;8.328;2023-04-24T02:42:39;1.88;;;1.10;;
7031;SDS011;3557;48.880;8.328;2023-04-24T02:45:06;2.22;;;1.10;;
7031;SDS011;3557;48.880;8.328;2023-04-24T02:47:35;1.30;;;0.90;;
7031;SDS011;3557;48.880;8.328;2023-04-24T02:50:05;1.45;;;0.85;;
7031;SDS011;3557;48.880;8.328;2023-04-24T02:52:34;1.40;;;0.95;;
7031;SDS011;3557;48.880;8.328;2023-04-24T02:55:01;1.10;;;1.00;;
7031;SDS011;3557;48.880;8.328;2023-04-24T02:57:29;1.88;;;1.05;;
7031;SDS011;3557;48.880;8.328;2023-04-24T02:59:56;1.02;;;0.93;;
7031;SDS011;3557;48.880;8.328;2023-04-24T03:02:24;1.55;;;1.10;;
7031;SDS011;3557;48.880;8.328;2023-04-24T03:04:51;2.00;;;1.30;;
7031;SDS011;3557;48.880;8.328;2023-04-24T03:07:21;1.75;;;1.20;;
7031;SDS011;3557;48.880;8.328;2023-04-24T03:09:49;3.60;;;1.33;;
7031;SDS011;3557;48.880;8.328;2023-04-24T03:12:17;2.53;;;1.25;;
7031;SDS011;3557;48.880;8.328;2023-04-24T03:14:44;3.47;;;1.23;;
7031;SDS011;3557;48.880;8.328;2023-04-24T03:17:12;1.40;;;1.30;;
7031;SDS011;3557;48.880;8.328;2023-04-24T03:19:39;3.75;;;1.00;;
7031;SDS011;3557;48.880;8.328;2023-04-24T03:22:09;1.50;;;1.40;;
7031;SDS011;3557;48.880;8.328;2023-04-24T03:24:39;1.75;;;1.40;;
7031;SDS011;3557;48.880;8.328;2023-04-24T03:27:07;1.83;;;1.42;;
7031;SDS011;3557;48.880;8.328;2023-04-24T03:29:49;1.27;;;1.20;;
7031;SDS011;3557;48.880;8.328;2023-04-24T03:32:21;1.60;;;1.40;;
7031;SDS011;3557;48.880;8.328;2023-04-24T03:34:51;2.90;;;1.50;;
7031;SDS011;3557;48.880;8.328;2023-04-24T03:37:19;2.88;;;1.40;;
7031;SDS011;3557;48.880;8.328;2023-04-24T03:39:58;2.95;;;1.73;;
7031;SDS011;3557;48.880;8.328;2023-04-24T03:42:26;3.22;;;1.90;;
7031;SDS011;3557;48.880;8.328;2023-04-24T03:44:55;3.03;;;1.58;;
7031;SDS011;3557;48.880;8.328;2023-04-24T03:47:27;2.70;;;1.80;;
7031;SDS011;3557;48.880;8.328;2023-04-24T03:49:58;2.88;;;1.70;;
7031;SDS011;3557;48.880;8.328;2023-04-24T03:52:25;2.22;;;1.65;;
7031;SDS011;3557;48.880;8.328;2023-04-24T03:54:53;3.83;;;1.70;;
7031;SDS011;3557;48.880;8.328;2023-04-24T03:57:22;4.55;;;1.60;;
7031;SDS011;3557;48.880;8.328;2023-04-24T04:00:01;3.13;;;1.90;;
7031;SDS011;3557;48.880;8.328;2023-04-24T04:02:39;2.28;;;1.75;;
7031;SDS011;3557;48.880;8.328;2023-04-24T04:05:08;2.30;;;1.80;;
7031;SDS011;3557;48.880;8.328;2023-04-24T04:07:36;2.58;;;1.83;;
7031;SDS011;3557;48.880;8.328;2023-04-24T04:10:04;1.85;;;1.67;;
7031;SDS011;3557;48.880;8.328;2023-04-24T04:12:36;2.97;;;1.70;;
7031;SDS011;3557;48.880;8.328;2023-04-24T04:15:04;3.25;;;1.90;;
7031;SDS011;3557;48.880;8.328;2023-04-24T04:17:33;1.90;;;1.80;;
7031;SDS011;3557;48.880;8.328;2023-04-24T04:20:03;2.33;;;1.60;;
7031;SDS011;3557;48.880;8.328;2023-04-24T04:22:35;1.98;;;1.77;;
7031;SDS011;3557;48.880;8.328;2023-04-24T04:25:05;1.92;;;1.70;;
7031;SDS011;3557;48.880;8.328;2023-04-24T04:27:33;1.88;;;1.67;;
7031;SDS011;3557;48.880;8.328;2023-04-24T04:30:08;4.85;;;1.80;;
7031;SDS011;3557;48.880;8.328;2023-04-24T04:32:45;2.10;;;1.85;;
7031;SDS011;3557;48.880;8.328;2023-04-24T04:35:13;2.13;;;1.70;;
7031;SDS011;3557;48.880;8.328;2023-04-24T04:37:41;3.22;;;1.70;;
7031;SDS011;3557;48.880;8.328;2023-04-24T04:40:27;2.75;;;1.60;;
7031;SDS011;3557;48.880;8.328;2023-04-24T04:43:00;2.60;;;1.73;;
7031;SDS011;3557;48.880;8.328;2023-04-24T04:45:34;4.50;;;2.00;;
7031;SDS011;3557;48.880;8.328;2023-04-24T04:48:38;3.95;;;1.90;;
7031;SDS011;3557;48.880;8.328;2023-04-24T04:51:06;3.72;;;2.20;;
7031;SDS011;3557;48.880;8.328;2023-04-24T04:53:34;3.22;;;2.03;;
7031;SDS011;3557;48.880;8.328;2023-04-24T04:56:01;4.60;;;2.30;;
7031;SDS011;3557;48.880;8.328;2023-04-24T04:58:39;2.35;;;2.05;;
7031;SDS011;3557;48.880;8.328;2023-04-24T05:01:11;2.58;;;2.30;;
7031;SDS011;3557;48.880;8.328;2023-04-24T05:03:41;3.58;;;2.00;;
7031;SDS011;3557;48.880;8.328;2023-04-24T05:06:12;2.47;;;2.25;;
7031;SDS011;3557;48.880;8.328;2023-04-24T05:08:40;3.45;;;2.08;;
7031;SDS011;3557;48.880;8.328;2023-04-24T05:11:14;2.70;;;2.15;;
7031;SDS011;3557;48.880;8.328;2023-04-24T05:13:41;2.28;;;1.95;;
7031;SDS011;3557;48.880;8.328;2023-04-24T05:16:15;2.17;;;1.90;;
7031;SDS011;3557;48.880;8.328;2023-04-24T05:18:43;3.47;;;2.50;;
7031;SDS011;3557;48.880;8.328;2023-04-24T05:21:14;2.78;;;2.13;;
7031;SDS011;3557;48.880;8.328;2023-04-24T05:23:45;2.97;;;2.00;;
7031;SDS011;3557;48.880;8.328;2023-04-24T05:26:17;1.92;;;1.80;;
7031;SDS011;3557;48.880;8.328;2023-04-24T05:28:45;2.92;;;1.95;;
7031;SDS011;3557;48.880;8.328;2023-04-24T05:31:14;4.50;;;1.70;;
7031;SDS011;3557;48.880;8.328;2023-04-24T05:33:43;1.80;;;1.70;;
7031;SDS011;3557;48.880;8.328;2023-04-24T05:36:11;2.25;;;1.88;;
7031;SDS011;3557;48.880;8.328;2023-04-24T05:38:38;1.90;;;1.80;;
7031;SDS011;3557;48.880;8.328;2023-04-24T05:41:06;3.90;;;1.75;;
7031;SDS011;3557;48.880;8.328;2023-04-24T05:43:34;2.35;;;2.03;;
7031;SDS011;3557;48.880;8.328;2023-04-24T05:46:02;2.25;;;2.05;;
7031;SDS011;3557;48.880;8.328;2023-04-24T05:48:31;3.05;;;2.05;;
7031;SDS011;3557;48.880;8.328;2023-04-24T05:51:00;2.00;;;1.80;;
7031;SDS011;3557;48.880;8.328;2023-04-24T05:53:28;2.28;;;2.03;;
7031;SDS011;3557;48.880;8.328;2023-04-24T05:55:56;3.13;;;1.80;;
7031;SDS011;3557;48.880;8.328;2023-04-24T05:58:23;2.65;;;1.90;;
7031;SDS011;3557;48.880;8.328;2023-04-24T06:00:51;5.20;;;1.80;;
7031;SDS011;3557;48.880;8.328;2023-04-24T06:03:20;2.15;;;1.80;;
7031;SDS011;3557;48.880;8.328;2023-04-24T06:05:50;3.17;;;2.03;;
7031;SDS011;3557;48.880;8.328;2023-04-24T06:08:19;2.45;;;2.10;;
7031;SDS011;3557;48.880;8.328;2023-04-24T06:10:48;3.63;;;2.20;;
7031;SDS011;3557;48.880;8.328;2023-04-24T06:13:17;2.30;;;1.92;;
7031;SDS011;3557;48.880;8.328;2023-04-24T06:16:05;2.88;;;2.03;;
7031;SDS011;3557;48.880;8.328;2023-04-24T06:18:36;2.10;;;1.77;;
7031;SDS011;3557;48.880;8.328;2023-04-24T06:21:05;2.20;;;1.70;;
7031;SDS011;3557;48.880;8.328;2023-04-24T06:23:32;2.10;;;1.83;;
7031;SDS011;3557;48.880;8.328;2023-04-24T06:26:00;5.00;;;2.00;;
7031;SDS011;3557;48.880;8.328;2023-04-24T06:28:27;3.83;;;2.10;;
7031;SDS011;3557;48.880;8.328;2023-04-24T06:30:54;2.80;;;1.92;;
7031;SDS011;3557;48.880;8.328;2023-04-24T06:33:22;2.92;;;2.20;;
7031;SDS011;3557;48.880;8.328;2023-04-24T06:35:49;2.20;;;2.00;;
7031;SDS011;3557;48.880;8.328;2023-04-24T06:38:18;4.43;;;2.53;;
7031;SDS011;3557;48.880;8.328;2023-04-24T06:40:45;5.13;;;3.25;;
7031;SDS011;3557;48.880;8.328;2023-04-24T06:43:13;3.15;;;2.28;;
7031;SDS011;3557;48.880;8.328;2023-04-24T06:45:40;2.75;;;2.15;;
7031;SDS011;3557;48.880;8.328;2023-04-24T06:48:08;2.95;;;2.55;;
7031;SDS011;3557;48.880;8.328;2023-04-24T06:50:37;4.10;;;2.70;;
7031;SDS011;3557;48.880;8.328;2023-04-24T06:53:04;2.90;;;1.98;;
7031;SDS011;3557;48.880;8.328;2023-04-24T06:55:33;2.22;;;1.83;;
7031;SDS011;3557;48.880;8.328;2023-04-24T06:58:01;3.28;;;2.13;;
7031;SDS011;3557;48.880;8.328;2023-04-24T07:00:29;1.90;;;1.60;;
7031;SDS011;3557;48.880;8.328;2023-04-24T07:02:56;2.90;;;1.85;;
7031;SDS011;3557;48.880;8.328;2023-04-24T07:05:23;6.30;;;2.20;;
7031;SDS011;3557;48.880;8.328;2023-04-24T07:07:51;3.33;;;1.75;;
7031;SDS011;3557;48.880;8.328;2023-04-24T07:10:18;3.72;;;1.95;;
7031;SDS011;3557;48.880;8.328;2023-04-24T07:12:47;1.80;;;1.70;;
7031;SDS011;3557;48.880;8.328;2023-04-24T07:15:15;2.17;;;1.90;;
7031;SDS011;3557;48.880;8.328;2023-04-24T07:17:42;3.33;;;1.77;;
7031;SDS011;3557;48.880;8.328;2023-04-24T07:20:10;5.38;;;1.90;;
7031;SDS011;3557;48.880;8.328;2023-04-24T07:22:39;3.08;;;1.88;;
7031;SDS011;3557;48.880;8.328;2023-04-24T07:25:07;3.28;;;1.77;;
7031;SDS011;3557;48.880;8.328;2023-04-24T07:27:35;2.00;;;1.80;;
7031;SDS011;3557;48.880;8.328;2023-04-24T07:30:04;3.15;;;1.50;;
7031;SDS011;3557;48.880;8.328;2023-04-24T07:32:33;1.98;;;1.45;;
7031;SDS011;3557;48.880;8.328;2023-04-24T07:35:01;2.75;;;1.60;;
7031;SDS011;3557;48.880;8.328;2023-04-24T07:37:28;1.60;;;1.50;;
7031;SDS011;3557;48.880;8.328;2023-04-24T07:39:56;2.00;;;1.50;;
7031;SDS011;3557;48.880;8.328;2023-04-24T07:42:24;1.77;;;1.35;;
7031;SDS011;3557;48.880;8.328;2023-04-24T07:44:51;2.13;;;1.48;;
7031;SDS011;3557;48.880;8.328;2023-04-24T07:47:20;1.95;;;1.38;;
7031;SDS011;3557;48.880;8.328;2023-04-24T07:49:47;1.83;;;1.50;;
7031;SDS011;3557;48.880;8.328;2023-04-24T07:52:15;3.10;;;1.60;;
7031;SDS011;3557;48.880;8.328;2023-04-24T07:54:42;1.42;;;1.30;;
7031;SDS011;3557;48.880;8.328;2023-04-24T07:57:10;3.33;;;1.50;;
7031;SDS011;3557;48.880;8.328;2023-04-24T07:59:37;2.65;;;1.40;;
7031;SDS011;3557;48.880;8.328;2023-04-24T08:02:04;1.85;;;1.42;;
7031;SDS011;3557;48.880;8.328;2023-04-24T08:04:33;1.95;;;1.45;;
7031;SDS011;3557;48.880;8.328;2023-04-24T08:07:00;2.45;;;1.40;;
7031;SDS011;3557;48.880;8.328;2023-04-24T08:09:28;1.70;;;1.60;;
7031;SDS011;3557;48.880;8.328;2023-04-24T08:11:55;2.28;;;1.27;;
7031;SDS011;3557;48.880;8.328;2023-04-24T08:14:23;1.08;;;1.08;;
7031;SDS011;3557;48.880;8.328;2023-04-24T08:16:50;5.78;;;1.50;;
7031;SDS011;3557;48.880;8.328;2023-04-24T08:19:19;2.25;;;1.40;;
7031;SDS011;3557;48.880;8.328;2023-04-24T08:21:48;1.45;;;1.20;;
7031;SDS011;3557;48.880;8.328;2023-04-24T08:24:15;1.40;;;1.30;;
7031;SDS011;3557;48.880;8.328;2023-04-24T08:26:43;1.65;;;1.45;;
7031;SDS011;3557;48.880;8.328;2023-04-24T08:29:10;1.40;;;1.30;;
7031;SDS011;3557;48.880;8.328;2023-04-24T08:31:37;2.72;;;1.67;;
7031;SDS011;3557;48.880;8.328;2023-04-24T08:34:05;4.10;;;1.63;;
7031;SDS011;3557;48.880;8.328;2023-04-24T08:36:32;1.95;;;1.50;;
7031;SDS011;3557;48.880;8.328;2023-04-24T08:39:01;2.40;;;1.60;;
7031;SDS011;3557;48.880;8.328;2023-04-24T08:41:29;2.70;;;1.40;;
7031;SDS011;3557;48.880;8.328;2023-04-24T08:43:57;3.38;;;1.60;;
7031;SDS011;3557;48.880;8.328;2023-04-24T08:46:25;4.03;;;1.67;;
7031;SDS011;3557;48.880;8.328;2023-04-24T08:48:53;2.53;;;1.58;;
7031;SDS011;3557;48.880;8.328;2023-04-24T08:51:20;1.90;;;1.20;;
7031;SDS011;3557;48.880;8.328;2023-04-24T08:53:47;2.42;;;1.50;;
7031;SDS011;3557;48.880;8.328;2023-04-24T08:56:16;1.55;;;1.40;;
7031;SDS011;3557;48.880;8.328;2023-04-24T08:58:44;4.88;;;1.40;;
7031;SDS011;3557;48.880;8.328;2023-04-24T09:01:12;1.88;;;1.60;;
7031;SDS011;3557;48.880;8.328;2023-04-24T09:03:39;3.17;;;1.40;;
7031;SDS011;3557;48.880;8.328;2023-04-24T09:06:07;3.95;;;1.65;;
7031;SDS011;3557;48.880;8.328;2023-04-24T09:08:35;2.75;;;1.40;;
7031;SDS011;3557;48.880;8.328;2023-04-24T09:11:03;1.17;;;1.10;;
7031;SDS011;3557;48.880;8.328;2023-04-24T09:13:32;3.28;;;1.50;;
7031;SDS011;3557;48.880;8.328;2023-04-24T09:16:00;1.40;;;1.30;;
7031;SDS011;3557;48.880;8.328;2023-04-24T09:18:27;1.70;;;1.60;;
7031;SDS011;3557;48.880;8.328;2023-04-24T09:20:58;1.67;;;1.50;;
7031;SDS011;3557;48.880;8.328;2023-04-24T09:23:27;3.25;;;1.55;;
7031;SDS011;3557;48.880;8.328;2023-04-24T09:25:55;4.43;;;1.55;;
7031;SDS011;3557;48.880;8.328;2023-04-24T09:28:25;3.97;;;1.70;;
7031;SDS011;3557;48.880;8.328;2023-04-24T09:31:03;1.50;;;1.40;;
7031;SDS011;3557;48.880;8.328;2023-04-24T09:33:32;1.77;;;1.52;;
7031;SDS011;3557;48.880;8.328;2023-04-24T09:35:59;3.53;;;1.63;;
7031;SDS011;3557;48.880;8.328;2023-04-24T09:38:31;2.03;;;1.60;;
7031;SDS011;3557;48.880;8.328;2023-04-24T09:41:00;3.42;;;1.60;;
7031;SDS011;3557;48.880;8.328;2023-04-24T09:43:29;3.75;;;1.70;;
7031;SDS011;3557;48.880;8.328;2023-04-24T09:45:57;2.85;;;1.70;;
7031;SDS011;3557;48.880;8.328;2023-04-24T09:48:31;1.88;;;1.55;;
7031;SDS011;3557;48.880;8.328;2023-04-24T09:51:00;1.90;;;1.55;;
7031;SDS011;3557;48.880;8.328;2023-04-24T09:53:29;1.67;;;1.55;;
7031;SDS011;3557;48.880;8.328;2023-04-24T09:56:02;2.85;;;1.40;;
7031;SDS011;3557;48.880;8.328;2023-04-24T09:58:34;1.30;;;1.20;;
7031;SDS011;3557;48.880;8.328;2023-04-24T10:01:02;3.03;;;1.50;;
7031;SDS011;3557;48.880;8.328;2023-04-24T10:03:31;1.52;;;1.42;;
7031;SDS011;3557;48.880;8.328;2023-04-24T10:06:00;2.13;;;1.67;;
7031;SDS011;3557;48.880;8.328;2023-04-24T10:08:33;2.58;;;1.48;;
7031;SDS011;3557;48.880;8.328;2023-04-24T10:11:02;1.80;;;1.50;;
7031;SDS011;3557;48.880;8.328;2023-04-24T10:13:30;2.03;;;1.60;;
7031;SDS011;3557;48.880;8.328;2023-04-24T10:15:57;1.83;;;1.58;;
7031;SDS011;3557;48.880;8.328;2023-04-24T10:18:26;1.70;;;1.60;;
7031;SDS011;3557;48.880;8.328;2023-04-24T10:20:54;4.72;;;2.10;;
7031;SDS011;3557;48.880;8.328;2023-04-24T10:23:22;2.53;;;1.75;;
7031;SDS011;3557;48.880;8.328;2023-04-24T10:25:50;2.05;;;1.75;;
7031;SDS011;3557;48.880;8.328;2023-04-24T10:28:18;3.28;;;1.90;;
7031;SDS011;3557;48.880;8.328;2023-04-24T10:30:46;2.88;;;1.65;;
7031;SDS011;3557;48.880;8.328;2023-04-24T10:33:13;2.40;;;1.70;;
7031;SDS011;3557;48.880;8.328;2023-04-24T10:35:42;3.70;;;1.70;;
7031;SDS011;3557;48.880;8.328;2023-04-24T10:38:16;2.22;;;1.40;;
7031;SDS011;3557;48.880;8.328;2023-04-24T10:40:50;1.88;;;1.50;;
7031;SDS011;3557;48.880;8.328;2023-04-24T10:43:17;2.83;;;1.50;;
7031;SDS011;3557;48.880;8.328;2023-04-24T10:46:00;1.50;;;1.40;;
7031;SDS011;3557;48.880;8.328;2023-04-24T10:48:28;1.67;;;1.55;;
7031;SDS011;3557;48.880;8.328;2023-04-24T10:50:57;2.30;;;1.52;;
7031;SDS011;3557;48.880;8.328;2023-04-24T10:53:27;1.63;;;1.40;;
7031;SDS011;3557;48.880;8.328;2023-04-24T10:55:57;1.65;;;1.50;;
7031;SDS011;3557;48.880;8.328;2023-04-24T10:58:37;1.60;;;1.50;;
7031;SDS011;3557;48.880;8.328;2023-04-24T11:01:08;2.75;;;1.95;;
7031;SDS011;3557;48.880;8.328;2023-04-24T11:03:35;3.35;;;1.83;;
7031;SDS011;3557;48.880;8.328;2023-04-24T11:06:07;3.67;;;1.80;;
7031;SDS011;3557;48.880;8.328;2023-04-24T11:08:41;1.98;;;1.60;;
7031;SDS011;3557;48.880;8.328;2023-04-24T11:11:11;1.73;;;1.63;;
7031;SDS011;3557;48.880;8.328;2023-04-24T11:16:36;4.20;;;2.00;;
7031;SDS011;3557;48.880;8.328;2023-04-24T11:19:10;2.45;;;1.80;;
7031;SDS011;3557;48.880;8.328;2023-04-24T11:21:47;1.83;;;1.60;;
7031;SDS011;3557;48.880;8.328;2023-04-24T11:24:31;1.85;;;1.60;;
7031;SDS011;3557;48.880;8.328;2023-04-24T11:27:11;2.58;;;1.70;;
7031;SDS011;3557;48.880;8.328;2023-04-24T11:29:41;2.28;;;1.70;;
7031;SDS011;3557;48.880;8.328;2023-04-24T11:32:14;6.75;;;2.20;;
7031;SDS011;3557;48.880;8.328;2023-04-24T11:34:50;2.30;;;2.10;;
7031;SDS011;3557;48.880;8.328;2023-04-24T11:37:19;2.10;;;1.80;;
7031;SDS011;3557;48.880;8.328;2023-04-24T11:39:51;2.28;;;1.95;;
7031;SDS011;3557;48.880;8.328;2023-04-24T11:42:19;2.85;;;2.10;;
7031;SDS011;3557;48.880;8.328;2023-04-24T11:44:48;2.53;;;2.05;;
7031;SDS011;3557;48.880;8.328;2023-04-24T11:47:16;2.35;;;2.00;;
7031;SDS011;3557;48.880;8.328;2023-04-24T11:49:43;5.00;;;2.13;;
7031;SDS011;3557;48.880;8.328;2023-04-24T11:52:11;4.40;;;2.20;;
7031;SDS011;3557;48.880;8.328;2023-04-24T11:54:46;3.63;;;2.00;;
7031;SDS011;3557;48.880;8.328;2023-04-24T11:57:16;2.30;;;2.10;;
7031;SDS011;3557;48.880;8.328;2023-04-24T11:59:46;2.30;;;2.10;;
7031;SDS011;3557;48.880;8.328;2023-04-24T12:02:19;2.05;;;1.95;;
7031;SDS011;3557;48.880;8.328;2023-04-24T12:04:48;4.28;;;2.20;;
7031;SDS011;3557;48.880;8.328;2023-04-24T12:07:16;2.95;;;2.15;;
7031;SDS011;3557;48.880;8.328;2023-04-24T12:09:44;2.72;;;2.10;;
7031;SDS011;3557;48.880;8.328;2023-04-24T12:12:13;3.05;;;2.50;;
7031;SDS011;3557;48.880;8.328;2023-04-24T12:14:44;2.63;;;2.20;;
7031;SDS011;3557;48.880;8.328;2023-04-24T12:17:15;4.53;;;2.20;;
7031;SDS011;3557;48.880;8.328;2023-04-24T12:19:46;3.03;;;2.38;;
7031;SDS011;3557;48.880;8.328;2023-04-24T12:22:14;3.50;;;2.30;;
7031;SDS011;3557;48.880;8.328;2023-04-24T12:24:58;4.15;;;2.20;;
7031;SDS011;3557;48.880;8.328;2023-04-24T12:27:30;5.03;;;2.38;;
7031;SDS011;3557;48.880;8.328;2023-04-24T12:30:02;2.45;;;2.20;;
7031;SDS011;3557;48.880;8.328;2023-04-24T12:32:31;1.90;;;1.80;;
7031;SDS011;3557;48.880;8.328;2023-04-24T12:34:59;2.47;;;1.60;;
7031;SDS011;3557;48.880;8.328;2023-04-24T12:37:32;1.67;;;1.58;;
7031;SDS011;3557;48.880;8.328;2023-04-24T12:40:02;2.33;;;1.65;;
7031;SDS011;3557;48.880;8.328;2023-04-24T12:42:32;1.70;;;1.60;;
7031;SDS011;3557;48.880;8.328;2023-04-24T12:45:02;2.35;;;1.80;;
7031;SDS011;3557;48.880;8.328;2023-04-24T12:47:31;2.30;;;2.00;;
7031;SDS011;3557;48.880;8.328;2023-04-24T12:50:00;2.20;;;2.00;;
7031;SDS011;3557;48.880;8.328;2023-04-24T12:52:28;2.13;;;1.92;;
7031;SDS011;3557;48.880;8.328;2023-04-24T12:54:57;3.13;;;2.20;;
7031;SDS011;3557;48.880;8.328;2023-04-24T12:57:26;3.45;;;2.22;;
7031;SDS011;3557;48.880;8.328;2023-04-24T12:59:55;7.32;;;2.53;;
7031;SDS011;3557;48.880;8.328;2023-04-24T13:02:26;2.80;;;2.33;;
7031;SDS011;3557;48.880;8.328;2023-04-24T13:04:56;3.75;;;2.40;;
7031;SDS011;3557;48.880;8.328;2023-04-24T13:07:24;3.65;;;2.55;;
7031;SDS011;3557;48.880;8.328;2023-04-24T13:09:52;3.60;;;2.45;;
7031;SDS011;3557;48.880;8.328;2023-04-24T13:12:20;2.10;;;1.90;;
7031;SDS011;3557;48.880;8.328;2023-04-24T13:14:49;6.22;;;2.33;;
7031;SDS011;3557;48.880;8.328;2023-04-24T13:17:16;4.18;;;2.22;;
7031;SDS011;3557;48.880;8.328;2023-04-24T13:19:45;2.30;;;2.00;;
7031;SDS011;3557;48.880;8.328;2023-04-24T13:22:12;4.13;;;2.40;;
7031;SDS011;3557;48.880;8.328;2023-04-24T13:24:40;2.95;;;2.10;;
7031;SDS011;3557;48.880;8.328;2023-04-24T13:27:07;2.35;;;2.15;;
7031;SDS011;3557;48.880;8.328;2023-04-24T13:29:35;2.08;;;1.85;;
7031;SDS011;3557;48.880;8.328;2023-04-24T13:32:02;1.67;;;1.58;;
7031;SDS011;3557;48.880;8.328;2023-04-24T13:34:30;2.13;;;1.90;;
7031;SDS011;3557;48.880;8.328;2023-04-24T13:37:01;2.85;;;1.90;;
7031;SDS011;3557;48.880;8.328;2023-04-24T13:39:29;2.95;;;2.00;;
7031;SDS011;3557;48.880;8.328;2023-04-24T13:41:56;4.38;;;1.88;;
7031;SDS011;3557;48.880;8.328;2023-04-24T13:44:24;2.33;;;1.88;;
7031;SDS011;3557;48.880;8.328;2023-04-24T13:46:52;3.80;;;1.98;;
7031;SDS011;3557;48.880;8.328;2023-04-24T13:49:22;2.95;;;1.70;;
7031;SDS011;3557;48.880;8.328;2023-04-24T13:51:50;3.85;;;1.80;;
7031;SDS011;3557;48.880;8.328;2023-04-24T13:54:20;2.60;;;1.98;;
7031;SDS011;3557;48.880;8.328;2023-04-24T13:56:48;2.95;;;2.13;;
7031;SDS011;3557;48.880;8.328;2023-04-24T13:59:16;2.85;;;1.98;;
7031;SDS011;3557;48.880;8.328;2023-04-24T14:01:43;4.20;;;2.28;;
7031;SDS011;3557;48.880;8.328;2023-04-24T14:04:11;5.43;;;2.55;;
7031;SDS011;3557;48.880;8.328;2023-04-24T14:06:38;3.05;;;2.25;;
7031;SDS011;3557;48.880;8.328;2023-04-24T14:09:06;3.97;;;2.20;;
7031;SDS011;3557;48.880;8.328;2023-04-24T14:11:34;5.15;;;2.20;;
7031;SDS011;3557;48.880;8.328;2023-04-24T14:14:02;8.52;;;2.42;;
7031;SDS011;3557;48.880;8.328;2023-04-24T14:16:30;1.88;;;1.70;;
7031;SDS011;3557;48.880;8.328;2023-04-24T14:18:57;1.67;;;1.58;;
7031;SDS011;3557;48.880;8.328;2023-04-24T14:21:25;2.88;;;1.50;;
7031;SDS011;3557;48.880;8.328;2023-04-24T14:23:52;2.00;;;1.50;;
7031;SDS011;3557;48.880;8.328;2023-04-24T14:26:19;1.70;;;1.60;;
7031;SDS011;3557;48.880;8.328;2023-04-24T14:28:48;2.25;;;1.70;;
7031;SDS011;3557;48.880;8.328;2023-04-24T14:31:15;1.95;;;1.52;;
7031;SDS011;3557;48.880;8.328;2023-04-24T14:33:43;6.60;;;2.13;;
7031;SDS011;3557;48.880;8.328;2023-04-24T14:36:10;1.55;;;1.45;;
7031;SDS011;3557;48.880;8.328;2023-04-24T14:38:38;3.05;;;1.80;;
7031;SDS011;3557;48.880;8.328;2023-04-24T14:41:05;2.22;;;1.70;;
7031;SDS011;3557;48.880;8.328;2023-04-24T14:43:35;2.20;;;1.92;;
7031;SDS011;3557;48.880;8.328;2023-04-24T14:46:04;2.92;;;1.92;;
7031;SDS011;3557;48.880;8.328;2023-04-24T14:48:31;4.97;;;2.50;;
7031;SDS011;3557;48.880;8.328;2023-04-24T14:50:59;2.30;;;2.10;;
7031;SDS011;3557;48.880;8.328;2023-04-24T14:53:26;3.22;;;1.83;;
7031;SDS011;3557;48.880;8.328;2023-04-24T14:55:53;2.50;;;2.10;;
7031;SDS011;3557;48.880;8.328;2023-04-24T14:58:21;2.72;;;1.95;;
7031;SDS011;3557;48.880;8.328;2023-04-24T15:00:48;3.45;;;1.60;;
7031;SDS011;3557;48.880;8.328;2023-04-24T15:03:19;8.20;;;2.20;;
7031;SDS011;3557;48.880;8.328;2023-04-24T15:05:47;2.35;;;1.70;;
7031;SDS011;3557;48.880;8.328;2023-04-24T15:08:15;2.70;;;1.70;;
7031;SDS011;3557;48.880;8.328;2023-04-24T15:10:42;1.80;;;1.60;;
7031;SDS011;3557;48.880;8.328;2023-04-24T15:13:10;1.85;;;1.67;;
7031;SDS011;3557;48.880;8.328;2023-04-24T15:15:37;1.73;;;1.58;;
7031;SDS011;3557;48.880;8.328;2023-04-24T15:18:05;2.30;;;1.92;;
7031;SDS011;3557;48.880;8.328;2023-04-24T15:20:35;1.60;;;1.50;;
7031;SDS011;3557;48.880;8.328;2023-04-24T15:23:04;1.88;;;1.75;;
7031;SDS011;3557;48.880;8.328;2023-04-24T15:25:31;2.75;;;1.90;;
7031;SDS011;3557;48.880;8.328;2023-04-24T15:27:59;3.92;;;1.70;;
7031;SDS011;3557;48.880;8.328;2023-04-24T15:30:26;1.80;;;1.70;;